sensor_id;sensor_type;location;lat;lon;timestamp;pressure;altitude;pressure_sealevel;temperature
25514;BMP180;48128;54.242;10.280;2022-07-24T00:00:21;101594.00;;;11.10
25514;BMP180;48128;54.242;10.280;2022-07-24T00:02:58;101599.00;;;11.10
25514;BMP180;48128;54.242;10.280;2022-07-24T00:05:47;101593.00;;;11.10
25514;BMP180;48128;54.242;10.280;2022-07-24T00:08:40;101587.00;;;11.10
25514;BMP180;48128;54.242;10.280;2022-07-24T00:11:23;101581.00;;;11.20
25514;BMP180;48128;54.242;10.280;2022-07-24T00:14:14;101575.00;;;11.20
25514;BMP180;48128;54.242;10.280;2022-07-24T00:16:49;101585.00;;;11.20
25514;BMP180;48128;54.242;10.280;2022-07-24T00:19:49;101569.00;;;11.20
25514;BMP180;48128;54.242;10.280;2022-07-24T00:22:44;101558.00;;;11.20
25514;BMP180;48128;54.242;10.280;2022-07-24T00:25:39;101568.00;;;11.20
25514;BMP180;48128;54.242;10.280;2022-07-24T00:28:13;101574.00;;;11.10
25514;BMP180;48128;54.242;10.280;2022-07-24T00:31:07;101565.00;;;11.10
25514;BMP180;48128;54.242;10.280;2022-07-24T00:33:50;101574.00;;;11.00
25514;BMP180;48128;54.242;10.280;2022-07-24T00:36:36;101570.00;;;11.00
25514;BMP180;48128;54.242;10.280;2022-07-24T00:39:17;101570.00;;;11.00
25514;BMP180;48128;54.242;10.280;2022-07-24T00:41:44;101566.00;;;11.00
25514;BMP180;48128;54.242;10.280;2022-07-24T00:44:13;101562.00;;;11.00
25514;BMP180;48128;54.242;10.280;2022-07-24T00:46:42;101559.00;;;10.90
25514;BMP180;48128;54.242;10.280;2022-07-24T00:49:11;101563.00;;;10.90
25514;BMP180;48128;54.242;10.280;2022-07-24T00:51:49;101559.00;;;10.90
25514;BMP180;48128;54.242;10.280;2022-07-24T00:54:18;101569.00;;;10.90
25514;BMP180;48128;54.242;10.280;2022-07-24T00:56:47;101562.00;;;10.80
25514;BMP180;48128;54.242;10.280;2022-07-24T00:59:14;101575.00;;;10.80
25514;BMP180;48128;54.242;10.280;2022-07-24T01:01:41;101577.00;;;10.80
25514;BMP180;48128;54.242;10.280;2022-07-24T01:04:09;101566.00;;;10.80
25514;BMP180;48128;54.242;10.280;2022-07-24T01:06:45;101570.00;;;10.70
25514;BMP180;48128;54.242;10.280;2022-07-24T01:09:13;101558.00;;;10.70
25514;BMP180;48128;54.242;10.280;2022-07-24T01:11:41;101555.00;;;10.70
25514;BMP180;48128;54.242;10.280;2022-07-24T01:14:09;101561.00;;;10.70
25514;BMP180;48128;54.242;10.280;2022-07-24T01:16:36;101554.00;;;10.70
25514;BMP180;48128;54.242;10.280;2022-07-24T01:19:03;101560.00;;;10.70
25514;BMP180;48128;54.242;10.280;2022-07-24T01:21:31;101574.00;;;10.70
25514;BMP180;48128;54.242;10.280;2022-07-24T01:23:58;101569.00;;;10.60
25514;BMP180;48128;54.242;10.280;2022-07-24T01:26:25;101574.00;;;10.60
25514;BMP180;48128;54.242;10.280;2022-07-24T01:28:52;101583.00;;;10.60
25514;BMP180;48128;54.242;10.280;2022-07-24T01:31:19;101568.00;;;10.60
25514;BMP180;48128;54.242;10.280;2022-07-24T01:33:46;101572.00;;;10.60
25514;BMP180;48128;54.242;10.280;2022-07-24T01:36:13;101578.00;;;10.60
25514;BMP180;48128;54.242;10.280;2022-07-24T01:38:40;101570.00;;;10.60
25514;BMP180;48128;54.242;10.280;2022-07-24T01:41:07;101575.00;;;10.60
25514;BMP180;48128;54.242;10.280;2022-07-24T01:43:34;101573.00;;;10.60
25514;BMP180;48128;54.242;10.280;2022-07-24T01:46:01;101569.00;;;10.60
25514;BMP180;48128;54.242;10.280;2022-07-24T01:48:32;101571.00;;;10.60
25514;BMP180;48128;54.242;10.280;2022-07-24T01:50:59;101562.00;;;10.60
25514;BMP180;48128;54.242;10.280;2022-07-24T01:53:26;101568.00;;;10.60
25514;BMP180;48128;54.242;10.280;2022-07-24T01:55:53;101562.00;;;10.60
25514;BMP180;48128;54.242;10.280;2022-07-24T01:58:20;101569.00;;;10.60
25514;BMP180;48128;54.242;10.280;2022-07-24T02:00:49;101571.00;;;10.50
25514;BMP180;48128;54.242;10.280;2022-07-24T02:03:17;101565.00;;;10.50
25514;BMP180;48128;54.242;10.280;2022-07-24T02:05:44;101567.00;;;10.50
25514;BMP180;48128;54.242;10.280;2022-07-24T02:08:11;101559.00;;;10.50
25514;BMP180;48128;54.242;10.280;2022-07-24T02:10:39;101569.00;;;10.40
25514;BMP180;48128;54.242;10.280;2022-07-24T02:13:06;101569.00;;;10.40
25514;BMP180;48128;54.242;10.280;2022-07-24T02:15:33;101563.00;;;10.40
25514;BMP180;48128;54.242;10.280;2022-07-24T02:18:01;101561.00;;;10.40
25514;BMP180;48128;54.242;10.280;2022-07-24T02:20:28;101559.00;;;10.40
25514;BMP180;48128;54.242;10.280;2022-07-24T02:22:55;101565.00;;;10.40
25514;BMP180;48128;54.242;10.280;2022-07-24T02:25:22;101563.00;;;10.40
25514;BMP180;48128;54.242;10.280;2022-07-24T02:27:49;101561.00;;;10.40
25514;BMP180;48128;54.242;10.280;2022-07-24T02:30:18;101562.00;;;10.40
25514;BMP180;48128;54.242;10.280;2022-07-24T02:32:45;101563.00;;;10.30
25514;BMP180;48128;54.242;10.280;2022-07-24T02:35:12;101576.00;;;10.30
25514;BMP180;48128;54.242;10.280;2022-07-24T02:37:41;101577.00;;;10.30
25514;BMP180;48128;54.242;10.280;2022-07-24T02:40:09;101571.00;;;10.30
25514;BMP180;48128;54.242;10.280;2022-07-24T02:42:37;101578.00;;;10.30
25514;BMP180;48128;54.242;10.280;2022-07-24T02:45:05;101567.00;;;10.30
25514;BMP180;48128;54.242;10.280;2022-07-24T02:47:34;101563.00;;;10.30
25514;BMP180;48128;54.242;10.280;2022-07-24T02:50:01;101574.00;;;10.30
25514;BMP180;48128;54.242;10.280;2022-07-24T02:52:28;101568.00;;;10.30
25514;BMP180;48128;54.242;10.280;2022-07-24T02:54:55;101562.00;;;10.30
25514;BMP180;48128;54.242;10.280;2022-07-24T02:57:21;101578.00;;;10.30
25514;BMP180;48128;54.242;10.280;2022-07-24T02:59:57;101576.00;;;10.30
25514;BMP180;48128;54.242;10.280;2022-07-24T03:02:24;101581.00;;;10.30
25514;BMP180;48128;54.242;10.280;2022-07-24T03:04:51;101573.00;;;10.30
25514;BMP180;48128;54.242;10.280;2022-07-24T03:07:18;101584.00;;;10.40
25514;BMP180;48128;54.242;10.280;2022-07-24T03:09:45;101586.00;;;10.40
25514;BMP180;48128;54.242;10.280;2022-07-24T03:12:12;101578.00;;;10.40
25514;BMP180;48128;54.242;10.280;2022-07-24T03:14:39;101564.00;;;10.30
25514;BMP180;48128;54.242;10.280;2022-07-24T03:17:06;101569.00;;;10.30
25514;BMP180;48128;54.242;10.280;2022-07-24T03:19:33;101578.00;;;10.30
25514;BMP180;48128;54.242;10.280;2022-07-24T03:22:00;101569.00;;;10.30
25514;BMP180;48128;54.242;10.280;2022-07-24T03:24:27;101569.00;;;10.30
25514;BMP180;48128;54.242;10.280;2022-07-24T03:26:54;101564.00;;;10.30
25514;BMP180;48128;54.242;10.280;2022-07-24T03:29:25;101577.00;;;10.30
25514;BMP180;48128;54.242;10.280;2022-07-24T03:31:52;101564.00;;;10.30
25514;BMP180;48128;54.242;10.280;2022-07-24T03:34:19;101577.00;;;10.20
25514;BMP180;48128;54.242;10.280;2022-07-24T03:36:46;101565.00;;;10.20
25514;BMP180;48128;54.242;10.280;2022-07-24T03:39:13;101563.00;;;10.20
25514;BMP180;48128;54.242;10.280;2022-07-24T03:41:40;101556.00;;;10.20
25514;BMP180;48128;54.242;10.280;2022-07-24T03:44:07;101560.00;;;10.20
25514;BMP180;48128;54.242;10.280;2022-07-24T03:46:34;101540.00;;;10.20
25514;BMP180;48128;54.242;10.280;2022-07-24T03:49:02;101545.00;;;10.30
25514;BMP180;48128;54.242;10.280;2022-07-24T03:51:29;101547.00;;;10.30
25514;BMP180;48128;54.242;10.280;2022-07-24T03:53:57;101543.00;;;10.30
25514;BMP180;48128;54.242;10.280;2022-07-24T03:56:24;101549.00;;;10.30
25514;BMP180;48128;54.242;10.280;2022-07-24T03:58:52;101546.00;;;10.30
25514;BMP180;48128;54.242;10.280;2022-07-24T04:01:20;101566.00;;;10.40
25514;BMP180;48128;54.242;10.280;2022-07-24T04:03:47;101571.00;;;10.40
25514;BMP180;48128;54.242;10.280;2022-07-24T04:06:14;101560.00;;;10.40
25514;BMP180;48128;54.242;10.280;2022-07-24T04:08:41;101569.00;;;10.40
25514;BMP180;48128;54.242;10.280;2022-07-24T04:11:08;101578.00;;;10.40
25514;BMP180;48128;54.242;10.280;2022-07-24T04:13:35;101565.00;;;10.40
25514;BMP180;48128;54.242;10.280;2022-07-24T04:16:08;101565.00;;;10.50
25514;BMP180;48128;54.242;10.280;2022-07-24T04:18:35;101558.00;;;10.50
25514;BMP180;48128;54.242;10.280;2022-07-24T04:21:02;101563.00;;;10.60
25514;BMP180;48128;54.242;10.280;2022-07-24T04:23:29;101558.00;;;10.60
25514;BMP180;48128;54.242;10.280;2022-07-24T04:25:56;101549.00;;;10.70
25514;BMP180;48128;54.242;10.280;2022-07-24T04:28:23;101545.00;;;10.70
25514;BMP180;48128;54.242;10.280;2022-07-24T04:30:50;101535.00;;;10.80
25514;BMP180;48128;54.242;10.280;2022-07-24T04:33:17;101533.00;;;10.80
25514;BMP180;48128;54.242;10.280;2022-07-24T04:35:44;101528.00;;;10.80
25514;BMP180;48128;54.242;10.280;2022-07-24T04:38:11;101525.00;;;10.80
25514;BMP180;48128;54.242;10.280;2022-07-24T04:40:38;101528.00;;;10.90
25514;BMP180;48128;54.242;10.280;2022-07-24T04:43:05;101531.00;;;10.90
25514;BMP180;48128;54.242;10.280;2022-07-24T04:45:37;101518.00;;;11.00
25514;BMP180;48128;54.242;10.280;2022-07-24T04:48:04;101537.00;;;11.00
25514;BMP180;48128;54.242;10.280;2022-07-24T04:50:31;101528.00;;;11.10
25514;BMP180;48128;54.242;10.280;2022-07-24T04:52:58;101535.00;;;11.20
25514;BMP180;48128;54.242;10.280;2022-07-24T04:55:25;101533.00;;;11.20
25514;BMP180;48128;54.242;10.280;2022-07-24T04:57:52;101538.00;;;11.30
25514;BMP180;48128;54.242;10.280;2022-07-24T05:00:19;101536.00;;;11.30
25514;BMP180;48128;54.242;10.280;2022-07-24T05:02:45;101525.00;;;11.40
25514;BMP180;48128;54.242;10.280;2022-07-24T05:05:12;101524.00;;;11.40
25514;BMP180;48128;54.242;10.280;2022-07-24T05:07:39;101529.00;;;11.50
25514;BMP180;48128;54.242;10.280;2022-07-24T05:10:06;101536.00;;;11.50
25514;BMP180;48128;54.242;10.280;2022-07-24T05:12:33;101533.00;;;11.60
25514;BMP180;48128;54.242;10.280;2022-07-24T05:15:00;101534.00;;;11.70
25514;BMP180;48128;54.242;10.280;2022-07-24T05:17:27;101531.00;;;11.80
25514;BMP180;48128;54.242;10.280;2022-07-24T05:19:54;101525.00;;;11.90
25514;BMP180;48128;54.242;10.280;2022-07-24T05:22:21;101534.00;;;12.00
25514;BMP180;48128;54.242;10.280;2022-07-24T05:24:47;101529.00;;;12.10
25514;BMP180;48128;54.242;10.280;2022-07-24T05:27:14;101531.00;;;12.30
25514;BMP180;48128;54.242;10.280;2022-07-24T05:29:43;101537.00;;;12.30
25514;BMP180;48128;54.242;10.280;2022-07-24T05:32:10;101528.00;;;12.40
25514;BMP180;48128;54.242;10.280;2022-07-24T05:34:37;101541.00;;;12.50
25514;BMP180;48128;54.242;10.280;2022-07-24T05:37:09;101537.00;;;12.60
25514;BMP180;48128;54.242;10.280;2022-07-24T05:39:36;101536.00;;;12.60
25514;BMP180;48128;54.242;10.280;2022-07-24T05:42:03;101540.00;;;12.70
25514;BMP180;48128;54.242;10.280;2022-07-24T05:44:30;101551.00;;;12.80
25514;BMP180;48128;54.242;10.280;2022-07-24T05:46:57;101559.00;;;12.90
25514;BMP180;48128;54.242;10.280;2022-07-24T05:49:24;101554.00;;;13.00
25514;BMP180;48128;54.242;10.280;2022-07-24T05:51:52;101554.00;;;13.10
25514;BMP180;48128;54.242;10.280;2022-07-24T05:54:19;101555.00;;;13.20
25514;BMP180;48128;54.242;10.280;2022-07-24T05:56:46;101563.00;;;13.30
25514;BMP180;48128;54.242;10.280;2022-07-24T05:59:13;101567.00;;;13.40
25514;BMP180;48128;54.242;10.280;2022-07-24T06:01:40;101569.00;;;13.50
25514;BMP180;48128;54.242;10.280;2022-07-24T06:04:07;101571.00;;;13.70
25514;BMP180;48128;54.242;10.280;2022-07-24T06:06:34;101575.00;;;13.80
25514;BMP180;48128;54.242;10.280;2022-07-24T06:09:02;101566.00;;;13.80
25514;BMP180;48128;54.242;10.280;2022-07-24T06:11:29;101578.00;;;13.90
25514;BMP180;48128;54.242;10.280;2022-07-24T06:13:56;101579.00;;;14.00
25514;BMP180;48128;54.242;10.280;2022-07-24T06:16:23;101572.00;;;14.00
25514;BMP180;48128;54.242;10.280;2022-07-24T06:18:50;101581.00;;;14.10
25514;BMP180;48128;54.242;10.280;2022-07-24T06:21:17;101565.00;;;14.10
25514;BMP180;48128;54.242;10.280;2022-07-24T06:23:44;101558.00;;;14.20
25514;BMP180;48128;54.242;10.280;2022-07-24T06:26:11;101556.00;;;14.30
25514;BMP180;48128;54.242;10.280;2022-07-24T06:28:37;101561.00;;;14.30
25514;BMP180;48128;54.242;10.280;2022-07-24T06:31:04;101566.00;;;14.40
25514;BMP180;48128;54.242;10.280;2022-07-24T06:33:31;101571.00;;;14.50
25514;BMP180;48128;54.242;10.280;2022-07-24T06:36:02;101574.00;;;14.60
25514;BMP180;48128;54.242;10.280;2022-07-24T06:38:29;101582.00;;;14.80
25514;BMP180;48128;54.242;10.280;2022-07-24T06:40:55;101588.00;;;14.90
25514;BMP180;48128;54.242;10.280;2022-07-24T06:43:22;101601.00;;;15.00
25514;BMP180;48128;54.242;10.280;2022-07-24T06:45:49;101596.00;;;15.10
25514;BMP180;48128;54.242;10.280;2022-07-24T06:48:16;101605.00;;;15.20
25514;BMP180;48128;54.242;10.280;2022-07-24T06:50:43;101606.00;;;15.30
25514;BMP180;48128;54.242;10.280;2022-07-24T06:53:10;101604.00;;;15.40
25514;BMP180;48128;54.242;10.280;2022-07-24T06:55:37;101615.00;;;15.50
25514;BMP180;48128;54.242;10.280;2022-07-24T06:58:05;101613.00;;;15.60
25514;BMP180;48128;54.242;10.280;2022-07-24T07:00:32;101609.00;;;15.60
25514;BMP180;48128;54.242;10.280;2022-07-24T07:02:59;101595.00;;;15.70
25514;BMP180;48128;54.242;10.280;2022-07-24T07:05:26;101606.00;;;15.80
25514;BMP180;48128;54.242;10.280;2022-07-24T07:07:53;101599.00;;;15.90
25514;BMP180;48128;54.242;10.280;2022-07-24T07:10:20;101597.00;;;16.00
25514;BMP180;48128;54.242;10.280;2022-07-24T07:12:47;101594.00;;;16.00
25514;BMP180;48128;54.242;10.280;2022-07-24T07:15:14;101597.00;;;16.10
25514;BMP180;48128;54.242;10.280;2022-07-24T07:17:41;101601.00;;;16.30
25514;BMP180;48128;54.242;10.280;2022-07-24T07:20:10;101608.00;;;16.40
25514;BMP180;48128;54.242;10.280;2022-07-24T07:22:37;101603.00;;;16.70
25514;BMP180;48128;54.242;10.280;2022-07-24T07:25:05;101608.00;;;17.00
25514;BMP180;48128;54.242;10.280;2022-07-24T07:27:32;101618.00;;;17.30
25514;BMP180;48128;54.242;10.280;2022-07-24T07:29:59;101601.00;;;17.50
25514;BMP180;48128;54.242;10.280;2022-07-24T07:32:26;101620.00;;;17.70
25514;BMP180;48128;54.242;10.280;2022-07-24T07:34:53;101617.00;;;17.90
25514;BMP180;48128;54.242;10.280;2022-07-24T07:37:24;101616.00;;;17.90
25514;BMP180;48128;54.242;10.280;2022-07-24T07:39:51;101609.00;;;18.00
25514;BMP180;48128;54.242;10.280;2022-07-24T07:42:18;101625.00;;;18.20
25514;BMP180;48128;54.242;10.280;2022-07-24T07:44:47;101607.00;;;18.20
25514;BMP180;48128;54.242;10.280;2022-07-24T07:47:15;101600.00;;;18.40
25514;BMP180;48128;54.242;10.280;2022-07-24T07:49:42;101603.00;;;18.40
25514;BMP180;48128;54.242;10.280;2022-07-24T07:52:09;101603.00;;;18.40
25514;BMP180;48128;54.242;10.280;2022-07-24T07:54:36;101596.00;;;18.50
25514;BMP180;48128;54.242;10.280;2022-07-24T07:57:03;101606.00;;;18.60
25514;BMP180;48128;54.242;10.280;2022-07-24T07:59:29;101600.00;;;18.60
25514;BMP180;48128;54.242;10.280;2022-07-24T08:02:00;101602.00;;;18.70
25514;BMP180;48128;54.242;10.280;2022-07-24T08:04:27;101598.00;;;18.60
25514;BMP180;48128;54.242;10.280;2022-07-24T08:06:54;101588.00;;;18.60
25514;BMP180;48128;54.242;10.280;2022-07-24T08:09:24;101586.00;;;18.70
25514;BMP180;48128;54.242;10.280;2022-07-24T08:11:51;101602.00;;;19.00
25514;BMP180;48128;54.242;10.280;2022-07-24T08:14:18;101591.00;;;19.20
25514;BMP180;48128;54.242;10.280;2022-07-24T08:16:45;101603.00;;;19.40
25514;BMP180;48128;54.242;10.280;2022-07-24T08:19:12;101597.00;;;19.50
25514;BMP180;48128;54.242;10.280;2022-07-24T08:21:39;101621.00;;;19.60
25514;BMP180;48128;54.242;10.280;2022-07-24T08:24:06;101615.00;;;19.80
25514;BMP180;48128;54.242;10.280;2022-07-24T08:26:34;101608.00;;;20.00
25514;BMP180;48128;54.242;10.280;2022-07-24T08:29:01;101593.00;;;20.00
25514;BMP180;48128;54.242;10.280;2022-07-24T08:31:28;101607.00;;;20.30
25514;BMP180;48128;54.242;10.280;2022-07-24T08:33:55;101598.00;;;20.40
25514;BMP180;48128;54.242;10.280;2022-07-24T08:36:22;101601.00;;;20.50
25514;BMP180;48128;54.242;10.280;2022-07-24T08:38:49;101600.00;;;20.60
25514;BMP180;48128;54.242;10.280;2022-07-24T08:41:17;101596.00;;;20.70
25514;BMP180;48128;54.242;10.280;2022-07-24T08:43:52;101631.00;;;20.80
25514;BMP180;48128;54.242;10.280;2022-07-24T08:46:19;101619.00;;;21.00
25514;BMP180;48128;54.242;10.280;2022-07-24T08:48:47;101616.00;;;21.00
25514;BMP180;48128;54.242;10.280;2022-07-24T08:51:14;101630.00;;;21.10
25514;BMP180;48128;54.242;10.280;2022-07-24T08:53:45;101629.00;;;21.30
25514;BMP180;48128;54.242;10.280;2022-07-24T08:56:21;101628.00;;;21.50
25514;BMP180;48128;54.242;10.280;2022-07-24T08:58:49;101625.00;;;21.60
25514;BMP180;48128;54.242;10.280;2022-07-24T09:01:16;101627.00;;;21.80
25514;BMP180;48128;54.242;10.280;2022-07-24T09:03:46;101615.00;;;21.90
25514;BMP180;48128;54.242;10.280;2022-07-24T09:09:02;101635.00;;;22.20
25514;BMP180;48128;54.242;10.280;2022-07-24T09:11:30;101625.00;;;22.30
25514;BMP180;48128;54.242;10.280;2022-07-24T09:14:02;101606.00;;;22.40
25514;BMP180;48128;54.242;10.280;2022-07-24T09:16:47;101612.00;;;22.60
25514;BMP180;48128;54.242;10.280;2022-07-24T09:19:15;101622.00;;;22.70
25514;BMP180;48128;54.242;10.280;2022-07-24T09:21:44;101618.00;;;22.90
25514;BMP180;48128;54.242;10.280;2022-07-24T09:24:19;101627.00;;;23.00
25514;BMP180;48128;54.242;10.280;2022-07-24T09:26:54;101626.00;;;23.20
25514;BMP180;48128;54.242;10.280;2022-07-24T09:29:25;101627.00;;;23.20
25514;BMP180;48128;54.242;10.280;2022-07-24T09:31:57;101616.00;;;23.20
25514;BMP180;48128;54.242;10.280;2022-07-24T09:34:25;101604.00;;;23.50
25514;BMP180;48128;54.242;10.280;2022-07-24T09:37:12;101622.00;;;23.70
25514;BMP180;48128;54.242;10.280;2022-07-24T09:39:45;101623.00;;;23.90
25514;BMP180;48128;54.242;10.280;2022-07-24T09:42:12;101608.00;;;24.00
25514;BMP180;48128;54.242;10.280;2022-07-24T09:44:40;101617.00;;;24.10
25514;BMP180;48128;54.242;10.280;2022-07-24T09:47:10;101605.00;;;24.20
25514;BMP180;48128;54.242;10.280;2022-07-24T09:49:39;101616.00;;;24.30
25514;BMP180;48128;54.242;10.280;2022-07-24T09:52:18;101614.00;;;24.40
25514;BMP180;48128;54.242;10.280;2022-07-24T09:54:50;101598.00;;;24.60
25514;BMP180;48128;54.242;10.280;2022-07-24T09:57:26;101593.00;;;24.70
25514;BMP180;48128;54.242;10.280;2022-07-24T10:00:00;101601.00;;;25.00
25514;BMP180;48128;54.242;10.280;2022-07-24T10:02:30;101612.00;;;25.10
25514;BMP180;48128;54.242;10.280;2022-07-24T10:04:59;101601.00;;;25.20
25514;BMP180;48128;54.242;10.280;2022-07-24T10:07:27;101594.00;;;25.40
25514;BMP180;48128;54.242;10.280;2022-07-24T10:09:56;101596.00;;;25.80
25514;BMP180;48128;54.242;10.280;2022-07-24T10:12:25;101612.00;;;25.80
25514;BMP180;48128;54.242;10.280;2022-07-24T10:14:55;101607.00;;;25.80
25514;BMP180;48128;54.242;10.280;2022-07-24T10:20:20;101587.00;;;25.40
25514;BMP180;48128;54.242;10.280;2022-07-24T10:23:24;101600.00;;;25.40
25514;BMP180;48128;54.242;10.280;2022-07-24T10:26:03;101595.00;;;25.60
25514;BMP180;48128;54.242;10.280;2022-07-24T10:28:38;101603.00;;;25.70
25514;BMP180;48128;54.242;10.280;2022-07-24T10:31:06;101593.00;;;25.80
25514;BMP180;48128;54.242;10.280;2022-07-24T10:33:36;101557.00;;;26.00
25514;BMP180;48128;54.242;10.280;2022-07-24T10:36:06;101564.00;;;26.30
25514;BMP180;48128;54.242;10.280;2022-07-24T10:38:36;101598.00;;;26.60
25514;BMP180;48128;54.242;10.280;2022-07-24T10:41:12;101584.00;;;26.90
25514;BMP180;48128;54.242;10.280;2022-07-24T10:43:41;101591.00;;;27.00
25514;BMP180;48128;54.242;10.280;2022-07-24T10:46:28;101580.00;;;27.10
25514;BMP180;48128;54.242;10.280;2022-07-24T10:48:55;101580.00;;;27.00
25514;BMP180;48128;54.242;10.280;2022-07-24T10:51:22;101552.00;;;26.70
25514;BMP180;48128;54.242;10.280;2022-07-24T10:53:52;101571.00;;;26.30
25514;BMP180;48128;54.242;10.280;2022-07-24T10:59:11;101562.00;;;26.30
25514;BMP180;48128;54.242;10.280;2022-07-24T11:01:40;101568.00;;;26.40
25514;BMP180;48128;54.242;10.280;2022-07-24T11:06:53;101554.00;;;26.90
25514;BMP180;48128;54.242;10.280;2022-07-24T11:09:25;101546.00;;;27.20
25514;BMP180;48128;54.242;10.280;2022-07-24T11:14:26;101544.00;;;27.20
25514;BMP180;48128;54.242;10.280;2022-07-24T11:17:43;101528.00;;;27.30
25514;BMP180;48128;54.242;10.280;2022-07-24T11:20:20;101517.00;;;27.00
25514;BMP180;48128;54.242;10.280;2022-07-24T11:22:52;101528.00;;;26.90
25514;BMP180;48128;54.242;10.280;2022-07-24T11:25:28;101511.00;;;27.00
25514;BMP180;48128;54.242;10.280;2022-07-24T11:30:41;101518.00;;;27.50
25514;BMP180;48128;54.242;10.280;2022-07-24T11:33:10;101513.00;;;27.70
25514;BMP180;48128;54.242;10.280;2022-07-24T11:35:38;101514.00;;;27.90
25514;BMP180;48128;54.242;10.280;2022-07-24T11:38:07;101527.00;;;28.00
25514;BMP180;48128;54.242;10.280;2022-07-24T11:40:35;101512.00;;;27.90
25514;BMP180;48128;54.242;10.280;2022-07-24T11:43:04;101493.00;;;27.90
25514;BMP180;48128;54.242;10.280;2022-07-24T11:45:39;101505.00;;;28.00
25514;BMP180;48128;54.242;10.280;2022-07-24T11:48:17;101491.00;;;28.00
25514;BMP180;48128;54.242;10.280;2022-07-24T11:51:05;101502.00;;;28.10
25514;BMP180;48128;54.242;10.280;2022-07-24T11:53:55;101511.00;;;28.30
25514;BMP180;48128;54.242;10.280;2022-07-24T11:56:32;101483.00;;;28.20
25514;BMP180;48128;54.242;10.280;2022-07-24T11:59:03;101487.00;;;28.20
25514;BMP180;48128;54.242;10.280;2022-07-24T12:01:30;101490.00;;;28.40
25514;BMP180;48128;54.242;10.280;2022-07-24T12:04:00;101479.00;;;28.50
25514;BMP180;48128;54.242;10.280;2022-07-24T12:06:28;101473.00;;;28.70
25514;BMP180;48128;54.242;10.280;2022-07-24T12:09:30;101472.00;;;28.80
25514;BMP180;48128;54.242;10.280;2022-07-24T12:12:38;101471.00;;;28.90
25514;BMP180;48128;54.242;10.280;2022-07-24T12:15:29;101464.00;;;29.00
25514;BMP180;48128;54.242;10.280;2022-07-24T12:18:01;101459.00;;;29.00
25514;BMP180;48128;54.242;10.280;2022-07-24T12:20:36;101475.00;;;28.70
25514;BMP180;48128;54.242;10.280;2022-07-24T12:23:12;101472.00;;;28.70
25514;BMP180;48128;54.242;10.280;2022-07-24T12:25:43;101461.00;;;28.40
25514;BMP180;48128;54.242;10.280;2022-07-24T12:28:13;101449.00;;;28.20
25514;BMP180;48128;54.242;10.280;2022-07-24T12:30:53;101443.00;;;28.40
25514;BMP180;48128;54.242;10.280;2022-07-24T12:33:22;101446.00;;;28.40
25514;BMP180;48128;54.242;10.280;2022-07-24T12:36:10;101454.00;;;28.70
25514;BMP180;48128;54.242;10.280;2022-07-24T12:38:52;101429.00;;;28.50
25514;BMP180;48128;54.242;10.280;2022-07-24T12:41:22;101456.00;;;28.80
25514;BMP180;48128;54.242;10.280;2022-07-24T17:36:38;101128.00;;;25.70
25514;BMP180;48128;54.242;10.280;2022-07-24T17:44:18;101116.00;;;25.40
25514;BMP180;48128;54.242;10.280;2022-07-24T17:47:48;101120.00;;;25.30
25514;BMP180;48128;54.242;10.280;2022-07-24T17:51:16;101118.00;;;25.40
25514;BMP180;48128;54.242;10.280;2022-07-24T17:54:28;101112.00;;;25.40
25514;BMP180;48128;54.242;10.280;2022-07-24T18:00:52;101107.00;;;25.10
25514;BMP180;48128;54.242;10.280;2022-07-24T18:03:58;101111.00;;;25.00
25514;BMP180;48128;54.242;10.280;2022-07-24T18:07:07;101101.00;;;24.90
25514;BMP180;48128;54.242;10.280;2022-07-24T18:09:59;101115.00;;;24.90
25514;BMP180;48128;54.242;10.280;2022-07-24T18:13:05;101119.00;;;24.80
25514;BMP180;48128;54.242;10.280;2022-07-24T18:16:28;101120.00;;;24.80
25514;BMP180;48128;54.242;10.280;2022-07-24T18:19:37;101116.00;;;24.80
25514;BMP180;48128;54.242;10.280;2022-07-24T18:22:22;101113.00;;;24.80
25514;BMP180;48128;54.242;10.280;2022-07-24T18:25:26;101119.00;;;24.70
25514;BMP180;48128;54.242;10.280;2022-07-24T18:28:57;101112.00;;;24.60
25514;BMP180;48128;54.242;10.280;2022-07-24T18:31:51;101111.00;;;24.60
25514;BMP180;48128;54.242;10.280;2022-07-24T18:34:56;101106.00;;;24.60
25514;BMP180;48128;54.242;10.280;2022-07-24T18:38:04;101081.00;;;24.40
25514;BMP180;48128;54.242;10.280;2022-07-24T18:41:06;101087.00;;;24.40
25514;BMP180;48128;54.242;10.280;2022-07-24T18:43:48;101121.00;;;24.30
25514;BMP180;48128;54.242;10.280;2022-07-24T18:46:20;101133.00;;;24.40
25514;BMP180;48128;54.242;10.280;2022-07-24T18:48:47;101124.00;;;24.40
25514;BMP180;48128;54.242;10.280;2022-07-24T18:51:14;101132.00;;;24.40
25514;BMP180;48128;54.242;10.280;2022-07-24T18:53:51;101128.00;;;24.40
25514;BMP180;48128;54.242;10.280;2022-07-24T18:56:20;101109.00;;;24.30
25514;BMP180;48128;54.242;10.280;2022-07-24T18:58:47;101110.00;;;24.20
25514;BMP180;48128;54.242;10.280;2022-07-24T19:01:14;101105.00;;;24.10
25514;BMP180;48128;54.242;10.280;2022-07-24T19:03:47;101110.00;;;24.00
25514;BMP180;48128;54.242;10.280;2022-07-24T19:06:14;101103.00;;;23.90
25514;BMP180;48128;54.242;10.280;2022-07-24T19:08:41;101106.00;;;23.70
25514;BMP180;48128;54.242;10.280;2022-07-24T19:11:08;101108.00;;;23.60
25514;BMP180;48128;54.242;10.280;2022-07-24T19:13:35;101107.00;;;23.40
25514;BMP180;48128;54.242;10.280;2022-07-24T19:16:04;101094.00;;;23.30
25514;BMP180;48128;54.242;10.280;2022-07-24T19:18:31;101095.00;;;23.20
25514;BMP180;48128;54.242;10.280;2022-07-24T19:20:58;101101.00;;;23.10
25514;BMP180;48128;54.242;10.280;2022-07-24T19:23:25;101092.00;;;22.90
25514;BMP180;48128;54.242;10.280;2022-07-24T19:25:54;101094.00;;;22.80
25514;BMP180;48128;54.242;10.280;2022-07-24T19:28:24;101100.00;;;22.70